sensor_id;sensor_type;location;lat;lon;timestamp;pressure;altitude;pressure_sealevel;temperature;humidity
6514;BME280;3290;47.716;9.070;2023-07-13T00:01:46;96955.81;;;22.42;100.00
6514;BME280;3290;47.716;9.070;2023-07-13T00:04:18;96963.25;;;22.63;100.00
6514;BME280;3290;47.716;9.070;2023-07-13T00:06:45;96963.03;;;22.60;99.92
6514;BME280;3290;47.716;9.070;2023-07-13T00:09:14;96959.13;;;22.34;98.57
6514;BME280;3290;47.716;9.070;2023-07-13T00:11:42;96962.03;;;22.56;98.20
6514;BME280;3290;47.716;9.070;2023-07-13T00:14:08;96960.31;;;22.65;97.77
6514;BME280;3290;47.716;9.070;2023-07-13T00:16:35;96956.25;;;22.49;96.69
6514;BME280;3290;47.716;9.070;2023-07-13T00:19:01;96951.78;;;22.63;96.67
6514;BME280;3290;47.716;9.070;2023-07-13T00:21:27;96957.25;;;22.53;95.81
6514;BME280;3290;47.716;9.070;2023-07-13T00:23:52;96951.91;;;22.35;97.56
6514;BME280;3290;47.716;9.070;2023-07-13T00:26:18;96958.88;;;22.54;95.81
6514;BME280;3290;47.716;9.070;2023-07-13T00:28:43;96952.41;;;22.37;96.66
6514;BME280;3290;47.716;9.070;2023-07-13T00:31:10;96940.38;;;22.76;95.09
6514;BME280;3290;47.716;9.070;2023-07-13T00:33:36;96950.75;;;22.59;95.79
6514;BME280;3290;47.716;9.070;2023-07-13T00:36:02;96946.25;;;22.36;95.77
6514;BME280;3290;47.716;9.070;2023-07-13T00:38:28;96949.47;;;22.38;96.17
6514;BME280;3290;47.716;9.070;2023-07-13T00:40:53;96955.28;;;22.22;97.86
6514;BME280;3290;47.716;9.070;2023-07-13T00:43:21;96950.38;;;22.29;97.95
6514;BME280;3290;47.716;9.070;2023-07-13T00:48:21;96949.22;;;22.11;96.46
6514;BME280;3290;47.716;9.070;2023-07-13T00:50:52;96949.38;;;22.02;97.76
6514;BME280;3290;47.716;9.070;2023-07-13T00:53:19;96951.25;;;22.24;97.58
6514;BME280;3290;47.716;9.070;2023-07-13T00:55:46;96941.81;;;22.09;100.00
6514;BME280;3290;47.716;9.070;2023-07-13T00:58:13;96955.28;;;22.22;100.00
6514;BME280;3290;47.716;9.070;2023-07-13T01:00:38;96954.00;;;22.14;100.00
6514;BME280;3290;47.716;9.070;2023-07-13T01:03:04;96954.56;;;22.11;100.00
6514;BME280;3290;47.716;9.070;2023-07-13T01:05:32;96948.22;;;22.08;100.00
6514;BME280;3290;47.716;9.070;2023-07-13T01:07:58;96953.34;;;21.81;100.00
6514;BME280;3290;47.716;9.070;2023-07-13T01:10:25;96960.56;;;21.80;100.00
6514;BME280;3290;47.716;9.070;2023-07-13T01:12:50;96958.00;;;21.70;100.00
6514;BME280;3290;47.716;9.070;2023-07-13T01:15:37;96967.78;;;21.52;100.00
6514;BME280;3290;47.716;9.070;2023-07-13T01:18:07;96972.31;;;21.51;100.00
6514;BME280;3290;47.716;9.070;2023-07-13T01:20:34;96963.31;;;21.70;100.00
6514;BME280;3290;47.716;9.070;2023-07-13T01:23:10;96964.09;;;21.71;100.00
6514;BME280;3290;47.716;9.070;2023-07-13T01:25:37;96968.19;;;21.64;100.00
6514;BME280;3290;47.716;9.070;2023-07-13T01:28:04;96971.69;;;21.59;100.00
6514;BME280;3290;47.716;9.070;2023-07-13T01:30:30;96972.66;;;21.68;100.00
6514;BME280;3290;47.716;9.070;2023-07-13T01:32:57;96974.69;;;21.81;100.00
6514;BME280;3290;47.716;9.070;2023-07-13T01:35:22;96967.75;;;21.80;100.00
6514;BME280;3290;47.716;9.070;2023-07-13T01:37:48;96971.47;;;21.84;100.00
6514;BME280;3290;47.716;9.070;2023-07-13T01:40:13;96967.59;;;21.95;100.00
6514;BME280;3290;47.716;9.070;2023-07-13T01:42:39;96960.25;;;21.82;100.00
6514;BME280;3290;47.716;9.070;2023-07-13T01:45:05;96964.97;;;21.67;100.00
6514;BME280;3290;47.716;9.070;2023-07-13T01:47:30;96953.91;;;21.78;100.00
6514;BME280;3290;47.716;9.070;2023-07-13T01:49:56;96941.81;;;21.62;100.00
6514;BME280;3290;47.716;9.070;2023-07-13T01:52:22;96938.16;;;21.53;100.00
6514;BME280;3290;47.716;9.070;2023-07-13T01:54:47;96939.13;;;21.62;100.00
6514;BME280;3290;47.716;9.070;2023-07-13T01:57:13;96944.47;;;21.85;100.00
6514;BME280;3290;47.716;9.070;2023-07-13T01:59:38;96939.94;;;21.86;100.00
6514;BME280;3290;47.716;9.070;2023-07-13T02:02:04;96944.09;;;21.73;100.00
6514;BME280;3290;47.716;9.070;2023-07-13T02:04:29;96952.47;;;21.62;100.00
6514;BME280;3290;47.716;9.070;2023-07-13T02:06:54;96955.66;;;21.64;100.00
6514;BME280;3290;47.716;9.070;2023-07-13T02:09:20;96944.97;;;21.64;100.00
6514;BME280;3290;47.716;9.070;2023-07-13T02:11:46;96939.69;;;21.59;100.00
6514;BME280;3290;47.716;9.070;2023-07-13T02:14:11;96941.19;;;21.70;100.00
6514;BME280;3290;47.716;9.070;2023-07-13T02:16:36;96941.47;;;21.69;100.00
6514;BME280;3290;47.716;9.070;2023-07-13T02:19:02;96945.84;;;21.60;100.00
6514;BME280;3290;47.716;9.070;2023-07-13T02:21:27;96950.16;;;21.79;100.00
6514;BME280;3290;47.716;9.070;2023-07-13T02:23:53;96953.44;;;21.71;100.00
6514;BME280;3290;47.716;9.070;2023-07-13T02:26:20;96953.78;;;21.88;100.00
6514;BME280;3290;47.716;9.070;2023-07-13T02:28:45;96948.88;;;22.00;100.00
6514;BME280;3290;47.716;9.070;2023-07-13T02:31:13;96952.41;;;22.13;100.00
6514;BME280;3290;47.716;9.070;2023-07-13T02:33:39;96952.88;;;22.20;100.00
6514;BME280;3290;47.716;9.070;2023-07-13T02:36:05;96956.28;;;22.26;100.00
6514;BME280;3290;47.716;9.070;2023-07-13T02:38:32;96967.97;;;22.07;100.00
6514;BME280;3290;47.716;9.070;2023-07-13T02:40:59;96967.97;;;22.07;100.00
6514;BME280;3290;47.716;9.070;2023-07-13T02:43:25;96968.78;;;22.07;100.00
6514;BME280;3290;47.716;9.070;2023-07-13T02:45:50;96963.66;;;22.10;100.00
6514;BME280;3290;47.716;9.070;2023-07-13T02:48:16;96972.97;;;22.13;100.00
6514;BME280;3290;47.716;9.070;2023-07-13T02:50:42;96967.94;;;22.35;100.00
6514;BME280;3290;47.716;9.070;2023-07-13T02:53:07;96968.59;;;22.45;100.00
6514;BME280;3290;47.716;9.070;2023-07-13T02:55:32;96964.91;;;22.41;100.00
6514;BME280;3290;47.716;9.070;2023-07-13T02:57:58;96962.47;;;21.98;100.00
6514;BME280;3290;47.716;9.070;2023-07-13T03:00:23;96953.97;;;22.19;100.00
6514;BME280;3290;47.716;9.070;2023-07-13T03:02:49;96958.66;;;22.27;100.00
6514;BME280;3290;47.716;9.070;2023-07-13T03:05:16;96949.41;;;22.61;100.00
6514;BME280;3290;47.716;9.070;2023-07-13T03:07:41;96954.81;;;22.75;100.00
6514;BME280;3290;47.716;9.070;2023-07-13T03:10:08;96961.22;;;22.55;100.00
6514;BME280;3290;47.716;9.070;2023-07-13T03:12:34;96968.88;;;22.44;100.00
6514;BME280;3290;47.716;9.070;2023-07-13T03:14:59;96966.00;;;22.40;100.00
6514;BME280;3290;47.716;9.070;2023-07-13T03:17:25;96966.84;;;22.36;100.00
6514;BME280;3290;47.716;9.070;2023-07-13T03:19:50;96972.09;;;22.22;100.00
6514;BME280;3290;47.716;9.070;2023-07-13T03:22:17;96963.31;;;21.94;100.00
6514;BME280;3290;47.716;9.070;2023-07-13T03:24:43;96966.50;;;21.96;100.00
6514;BME280;3290;47.716;9.070;2023-07-13T03:27:08;96956.88;;;22.00;100.00
6514;BME280;3290;47.716;9.070;2023-07-13T03:29:33;96953.50;;;22.12;100.00
6514;BME280;3290;47.716;9.070;2023-07-13T03:31:59;96963.78;;;22.01;100.00
6514;BME280;3290;47.716;9.070;2023-07-13T03:34:24;96974.25;;;22.20;100.00
6514;BME280;3290;47.716;9.070;2023-07-13T03:36:50;96972.59;;;22.24;100.00
6514;BME280;3290;47.716;9.070;2023-07-13T03:39:15;96973.44;;;21.97;100.00
6514;BME280;3290;47.716;9.070;2023-07-13T03:41:41;96976.38;;;21.95;100.00
6514;BME280;3290;47.716;9.070;2023-07-13T03:44:06;96972.66;;;21.96;100.00
6514;BME280;3290;47.716;9.070;2023-07-13T03:46:32;96980.41;;;22.21;100.00
6514;BME280;3290;47.716;9.070;2023-07-13T03:48:58;96981.75;;;22.18;100.00
6514;BME280;3290;47.716;9.070;2023-07-13T03:51:24;96987.19;;;22.09;100.00
6514;BME280;3290;47.716;9.070;2023-07-13T03:53:49;96977.63;;;21.79;100.00
6514;BME280;3290;47.716;9.070;2023-07-13T03:56:17;96990.56;;;21.91;100.00
6514;BME280;3290;47.716;9.070;2023-07-13T03:58:48;96993.31;;;21.86;100.00
6514;BME280;3290;47.716;9.070;2023-07-13T04:01:15;96992.22;;;21.87;100.00
6514;BME280;3290;47.716;9.070;2023-07-13T04:03:41;96986.69;;;21.78;100.00
6514;BME280;3290;47.716;9.070;2023-07-13T04:06:12;96980.66;;;21.68;100.00
6514;BME280;3290;47.716;9.070;2023-07-13T04:08:40;96987.97;;;21.86;100.00
6514;BME280;3290;47.716;9.070;2023-07-13T04:11:06;96983.19;;;21.83;100.00
6514;BME280;3290;47.716;9.070;2023-07-13T04:13:32;96989.00;;;21.90;100.00
6514;BME280;3290;47.716;9.070;2023-07-13T04:15:57;96988.31;;;21.79;100.00
6514;BME280;3290;47.716;9.070;2023-07-13T04:18:23;96990.56;;;21.91;100.00
6514;BME280;3290;47.716;9.070;2023-07-13T04:20:50;96990.03;;;22.17;100.00
6514;BME280;3290;47.716;9.070;2023-07-13T04:23:18;96987.97;;;21.86;100.00
6514;BME280;3290;47.716;9.070;2023-07-13T04:25:45;96997.03;;;21.85;100.00
6514;BME280;3290;47.716;9.070;2023-07-13T04:28:11;96996.16;;;21.66;100.00
6514;BME280;3290;47.716;9.070;2023-07-13T04:30:37;97002.78;;;21.73;100.00
6514;BME280;3290;47.716;9.070;2023-07-13T04:33:03;97012.50;;;21.88;100.00
6514;BME280;3290;47.716;9.070;2023-07-13T04:35:29;97008.44;;;21.67;100.00
6514;BME280;3290;47.716;9.070;2023-07-13T04:37:56;97010.91;;;21.87;100.00
6514;BME280;3290;47.716;9.070;2023-07-13T04:40:21;97015.97;;;21.60;100.00
6514;BME280;3290;47.716;9.070;2023-07-13T04:42:47;97012.63;;;21.73;100.00
6514;BME280;3290;47.716;9.070;2023-07-13T04:45:14;97022.16;;;21.84;100.00
6514;BME280;3290;47.716;9.070;2023-07-13T04:47:40;97034.34;;;21.90;100.00
6514;BME280;3290;47.716;9.070;2023-07-13T04:50:06;97025.34;;;21.86;100.00
6514;BME280;3290;47.716;9.070;2023-07-13T04:52:32;97019.78;;;22.06;100.00
6514;BME280;3290;47.716;9.070;2023-07-13T04:54:58;97023.19;;;22.11;100.00
6514;BME280;3290;47.716;9.070;2023-07-13T04:57:24;97021.78;;;22.18;100.00
6514;BME280;3290;47.716;9.070;2023-07-13T04:59:50;97023.63;;;22.23;100.00
6514;BME280;3290;47.716;9.070;2023-07-13T05:02:15;97033.59;;;22.36;100.00
6514;BME280;3290;47.716;9.070;2023-07-13T05:04:41;97031.16;;;22.39;100.00
6514;BME280;3290;47.716;9.070;2023-07-13T05:07:06;97033.63;;;22.08;100.00
6514;BME280;3290;47.716;9.070;2023-07-13T05:09:32;97023.97;;;22.11;100.00
6514;BME280;3290;47.716;9.070;2023-07-13T05:11:57;97031.69;;;22.13;100.00
6514;BME280;3290;47.716;9.070;2023-07-13T05:14:22;97035.28;;;22.04;100.00
6514;BME280;3290;47.716;9.070;2023-07-13T05:16:48;97037.19;;;22.26;100.00
6514;BME280;3290;47.716;9.070;2023-07-13T05:19:13;97042.84;;;22.43;100.00
6514;BME280;3290;47.716;9.070;2023-07-13T05:21:39;97054.63;;;22.42;100.00
6514;BME280;3290;47.716;9.070;2023-07-13T05:24:04;97053.94;;;22.55;100.00
6514;BME280;3290;47.716;9.070;2023-07-13T05:26:29;97063.66;;;22.46;100.00
6514;BME280;3290;47.716;9.070;2023-07-13T05:28:55;97059.34;;;22.50;100.00
6514;BME280;3290;47.716;9.070;2023-07-13T05:31:20;97060.94;;;22.51;100.00
6514;BME280;3290;47.716;9.070;2023-07-13T05:33:45;97067.19;;;22.65;100.00
6514;BME280;3290;47.716;9.070;2023-07-13T05:36:11;97066.22;;;22.56;100.00
6514;BME280;3290;47.716;9.070;2023-07-13T05:38:36;97062.13;;;22.82;100.00
6514;BME280;3290;47.716;9.070;2023-07-13T05:41:02;97067.97;;;23.07;100.00
6514;BME280;3290;47.716;9.070;2023-07-13T05:43:27;97065.91;;;22.81;100.00
6514;BME280;3290;47.716;9.070;2023-07-13T05:45:54;97069.44;;;22.53;100.00
6514;BME280;3290;47.716;9.070;2023-07-13T05:48:20;97076.25;;;22.64;100.00
6514;BME280;3290;47.716;9.070;2023-07-13T05:50:45;97081.28;;;22.47;100.00
6514;BME280;3290;47.716;9.070;2023-07-13T05:53:12;97079.81;;;22.59;100.00
6514;BME280;3290;47.716;9.070;2023-07-13T05:55:41;97088.78;;;22.68;100.00
6514;BME280;3290;47.716;9.070;2023-07-13T05:58:07;97077.72;;;22.75;100.00
6514;BME280;3290;47.716;9.070;2023-07-13T06:00:32;97075.53;;;22.58;100.00
6514;BME280;3290;47.716;9.070;2023-07-13T06:02:58;97073.31;;;22.42;98.14
6514;BME280;3290;47.716;9.070;2023-07-13T06:05:24;97072.22;;;22.43;100.00
6514;BME280;3290;47.716;9.070;2023-07-13T06:07:49;97077.06;;;22.41;100.00
6514;BME280;3290;47.716;9.070;2023-07-13T06:10:14;97081.72;;;22.31;100.00
6514;BME280;3290;47.716;9.070;2023-07-13T06:12:40;97083.09;;;22.28;97.16
6514;BME280;3290;47.716;9.070;2023-07-13T06:15:06;97091.28;;;22.60;96.59
6514;BME280;3290;47.716;9.070;2023-07-13T06:17:32;97087.84;;;22.78;94.22
6514;BME280;3290;47.716;9.070;2023-07-13T06:19:57;97099.78;;;22.85;95.82
6514;BME280;3290;47.716;9.070;2023-07-13T06:22:22;97109.16;;;22.83;96.31
6514;BME280;3290;47.716;9.070;2023-07-13T06:24:48;97105.03;;;22.72;99.52
6514;BME280;3290;47.716;9.070;2023-07-13T06:27:13;97114.47;;;22.64;97.75
6514;BME280;3290;47.716;9.070;2023-07-13T06:29:38;97114.84;;;22.76;96.54
6514;BME280;3290;47.716;9.070;2023-07-13T06:32:05;97119.78;;;22.88;96.11
6514;BME280;3290;47.716;9.070;2023-07-13T06:34:30;97115.50;;;22.68;95.31
6514;BME280;3290;47.716;9.070;2023-07-13T06:36:56;97123.16;;;22.75;92.74
6514;BME280;3290;47.716;9.070;2023-07-13T06:39:21;97128.81;;;22.96;91.91
6514;BME280;3290;47.716;9.070;2023-07-13T06:41:46;97133.69;;;22.66;94.59
6514;BME280;3290;47.716;9.070;2023-07-13T06:44:12;97130.84;;;22.58;96.47
6514;BME280;3290;47.716;9.070;2023-07-13T06:46:37;97131.06;;;22.38;92.28
6514;BME280;3290;47.716;9.070;2023-07-13T06:49:02;97130.72;;;22.45;90.13
6514;BME280;3290;47.716;9.070;2023-07-13T06:51:28;97141.66;;;22.43;90.81
6514;BME280;3290;47.716;9.070;2023-07-13T06:53:53;97140.59;;;22.44;95.71
6514;BME280;3290;47.716;9.070;2023-07-13T06:56:19;97139.41;;;22.78;94.85
6514;BME280;3290;47.716;9.070;2023-07-13T06:58:45;97141.41;;;22.68;96.57
6514;BME280;3290;47.716;9.070;2023-07-13T07:01:10;97142.06;;;22.78;100.00
6514;BME280;3290;47.716;9.070;2023-07-13T07:03:35;97136.38;;;22.90;100.00
6514;BME280;3290;47.716;9.070;2023-07-13T07:06:22;97143.50;;;22.71;100.00
6514;BME280;3290;47.716;9.070;2023-07-13T07:08:51;97144.00;;;22.73;99.41
6514;BME280;3290;47.716;9.070;2023-07-13T07:11:20;97150.72;;;22.70;100.00
6514;BME280;3290;47.716;9.070;2023-07-13T07:13:47;97148.91;;;22.66;95.59
6514;BME280;3290;47.716;9.070;2023-07-13T07:16:13;97153.69;;;22.69;95.58
6514;BME280;3290;47.716;9.070;2023-07-13T07:18:38;97161.88;;;22.54;92.84
6514;BME280;3290;47.716;9.070;2023-07-13T07:21:03;97162.75;;;21.45;88.17
6514;BME280;3290;47.716;9.070;2023-07-13T07:23:29;97159.94;;;22.03;88.23
6514;BME280;3290;47.716;9.070;2023-07-13T07:25:54;97171.25;;;21.90;89.69
6514;BME280;3290;47.716;9.070;2023-07-13T07:28:20;97163.22;;;21.57;91.75
6514;BME280;3290;47.716;9.070;2023-07-13T07:30:46;97173.00;;;21.19;94.82
6514;BME280;3290;47.716;9.070;2023-07-13T07:33:12;97165.78;;;20.47;100.00
6514;BME280;3290;47.716;9.070;2023-07-13T07:35:38;97175.91;;;20.45;100.00
6514;BME280;3290;47.716;9.070;2023-07-13T07:38:03;97173.00;;;20.36;100.00
6514;BME280;3290;47.716;9.070;2023-07-13T07:40:29;97174.34;;;20.34;100.00
6514;BME280;3290;47.716;9.070;2023-07-13T07:42:54;97172.72;;;20.48;100.00
6514;BME280;3290;47.716;9.070;2023-07-13T07:45:20;97186.56;;;20.35;100.00
6514;BME280;3290;47.716;9.070;2023-07-13T07:47:46;97178.06;;;20.33;100.00
6514;BME280;3290;47.716;9.070;2023-07-13T07:50:12;97183.88;;;20.74;100.00
6514;BME280;3290;47.716;9.070;2023-07-13T07:52:38;97197.50;;;20.04;100.00
6514;BME280;3290;47.716;9.070;2023-07-13T07:55:07;97202.53;;;20.35;100.00
6514;BME280;3290;47.716;9.070;2023-07-13T07:57:33;97190.28;;;20.63;97.11
6514;BME280;3290;47.716;9.070;2023-07-13T07:59:59;97188.88;;;20.86;97.27
6514;BME280;3290;47.716;9.070;2023-07-13T08:02:25;97194.91;;;21.16;95.39
6514;BME280;3290;47.716;9.070;2023-07-13T08:04:51;97198.75;;;21.48;97.21
6514;BME280;3290;47.716;9.070;2023-07-13T08:07:16;97196.09;;;21.43;96.63
6514;BME280;3290;47.716;9.070;2023-07-13T08:09:42;97198.88;;;21.71;95.19
6514;BME280;3290;47.716;9.070;2023-07-13T08:12:08;97192.19;;;22.07;96.71
6514;BME280;3290;47.716;9.070;2023-07-13T08:14:33;97196.03;;;21.91;92.50
6514;BME280;3290;47.716;9.070;2023-07-13T08:16:58;97183.84;;;22.13;93.87
6514;BME280;3290;47.716;9.070;2023-07-13T08:19:24;97189.00;;;22.05;94.62
6514;BME280;3290;47.716;9.070;2023-07-13T08:21:49;97197.91;;;21.95;99.49
6514;BME280;3290;47.716;9.070;2023-07-13T08:24:15;97191.94;;;22.36;94.17
6514;BME280;3290;47.716;9.070;2023-07-13T08:26:40;97190.13;;;22.60;92.71
6514;BME280;3290;47.716;9.070;2023-07-13T08:29:06;97188.53;;;22.31;96.69
6514;BME280;3290;47.716;9.070;2023-07-13T08:31:31;97183.91;;;22.41;96.06
6514;BME280;3290;47.716;9.070;2023-07-13T08:33:57;97192.84;;;22.27;98.74
6514;BME280;3290;47.716;9.070;2023-07-13T08:36:22;97187.53;;;22.50;91.57
6514;BME280;3290;47.716;9.070;2023-07-13T08:38:48;97195.63;;;22.45;93.51
6514;BME280;3290;47.716;9.070;2023-07-13T08:41:17;97189.94;;;22.23;92.28
6514;BME280;3290;47.716;9.070;2023-07-13T08:43:47;97196.88;;;22.24;88.01
6514;BME280;3290;47.716;9.070;2023-07-13T08:46:36;97190.28;;;22.45;84.50
6514;BME280;3290;47.716;9.070;2023-07-13T08:49:06;97186.78;;;22.73;82.89
6514;BME280;3290;47.716;9.070;2023-07-13T08:52:07;97178.47;;;22.51;77.07
6514;BME280;3290;47.716;9.070;2023-07-13T08:57:14;97179.25;;;22.75;79.92
6514;BME280;3290;47.716;9.070;2023-07-13T08:59:40;97180.94;;;22.43;79.42
6514;BME280;3290;47.716;9.070;2023-07-13T09:02:20;97177.38;;;22.52;79.21
6514;BME280;3290;47.716;9.070;2023-07-13T09:04:49;97176.03;;;23.01;78.64
6514;BME280;3290;47.716;9.070;2023-07-13T09:10:16;97186.34;;;23.12;79.26
6514;BME280;3290;47.716;9.070;2023-07-13T09:12:52;97192.69;;;22.70;76.52
6514;BME280;3290;47.716;9.070;2023-07-13T09:15:34;97193.72;;;22.74;75.71
6514;BME280;3290;47.716;9.070;2023-07-13T09:18:13;97202.00;;;22.16;78.20
6514;BME280;3290;47.716;9.070;2023-07-13T09:23:12;97189.63;;;23.04;73.69
6514;BME280;3290;47.716;9.070;2023-07-13T09:25:40;97189.59;;;23.69;74.14
6514;BME280;3290;47.716;9.070;2023-07-13T09:28:20;97187.69;;;24.06;69.08
6514;BME280;3290;47.716;9.070;2023-07-13T09:31:11;97196.94;;;23.59;70.50
6514;BME280;3290;47.716;9.070;2023-07-13T09:33:39;97195.19;;;23.31;69.41
6514;BME280;3290;47.716;9.070;2023-07-13T09:36:27;97186.63;;;24.39;70.98
6514;BME280;3290;47.716;9.070;2023-07-13T09:44:12;97181.50;;;24.55;66.34
6514;BME280;3290;47.716;9.070;2023-07-13T09:46:44;97185.81;;;25.23;65.87
6514;BME280;3290;47.716;9.070;2023-07-13T09:49:11;97184.97;;;25.98;60.32
6514;BME280;3290;47.716;9.070;2023-07-13T09:51:38;97189.34;;;25.59;61.30
6514;BME280;3290;47.716;9.070;2023-07-13T09:54:05;97187.09;;;25.12;64.93
6514;BME280;3290;47.716;9.070;2023-07-13T09:56:31;97187.56;;;24.74;65.12
6514;BME280;3290;47.716;9.070;2023-07-13T09:58:57;97192.34;;;24.91;63.64
6514;BME280;3290;47.716;9.070;2023-07-13T10:01:38;97203.47;;;24.84;67.44
6514;BME280;3290;47.716;9.070;2023-07-13T10:04:12;97200.47;;;24.72;65.18
6514;BME280;3290;47.716;9.070;2023-07-13T10:06:38;97197.09;;;24.54;65.47
6514;BME280;3290;47.716;9.070;2023-07-13T10:09:07;97201.50;;;24.76;67.39
6514;BME280;3290;47.716;9.070;2023-07-13T10:11:35;97194.63;;;24.70;68.51
6514;BME280;3290;47.716;9.070;2023-07-13T10:14:03;97196.38;;;25.06;68.15
6514;BME280;3290;47.716;9.070;2023-07-13T10:16:34;97194.13;;;24.68;60.75
6514;BME280;3290;47.716;9.070;2023-07-13T10:19:26;97197.78;;;25.52;61.93
6514;BME280;3290;47.716;9.070;2023-07-13T10:24:27;97192.75;;;25.86;60.77
6514;BME280;3290;47.716;9.070;2023-07-13T10:27:45;97192.22;;;26.19;62.29
6514;BME280;3290;47.716;9.070;2023-07-13T10:29:59;97192.91;;;25.06;60.90
6514;BME280;3290;47.716;9.070;2023-07-13T10:32:26;97189.91;;;24.94;62.06
6514;BME280;3290;47.716;9.070;2023-07-13T10:34:52;97187.66;;;24.83;62.85
6514;BME280;3290;47.716;9.070;2023-07-13T10:37:23;97184.03;;;25.05;63.38
6514;BME280;3290;47.716;9.070;2023-07-13T10:39:54;97182.22;;;25.28;61.86
6514;BME280;3290;47.716;9.070;2023-07-13T10:42:28;97188.38;;;25.41;60.65
6514;BME280;3290;47.716;9.070;2023-07-13T10:44:54;97175.66;;;26.47;58.95
6514;BME280;3290;47.716;9.070;2023-07-13T10:47:20;97177.81;;;26.58;56.29
6514;BME280;3290;47.716;9.070;2023-07-13T10:49:48;97192.09;;;25.19;59.16
6514;BME280;3290;47.716;9.070;2023-07-13T10:55:03;97187.91;;;26.31;55.40
6514;BME280;3290;47.716;9.070;2023-07-13T10:57:28;97185.28;;;26.18;56.98
6514;BME280;3290;47.716;9.070;2023-07-13T11:02:29;97191.63;;;25.52;57.27
6514;BME280;3290;47.716;9.070;2023-07-13T11:04:56;97196.63;;;24.92;58.07
6514;BME280;3290;47.716;9.070;2023-07-13T11:07:25;97188.94;;;26.74;54.28
6514;BME280;3290;47.716;9.070;2023-07-13T11:09:54;97184.91;;;25.28;56.96
6514;BME280;3290;47.716;9.070;2023-07-13T11:17:34;97188.88;;;25.43;53.85
6514;BME280;3290;47.716;9.070;2023-07-13T11:23:07;97175.81;;;25.99;56.14
6514;BME280;3290;47.716;9.070;2023-07-13T11:25:35;97173.34;;;25.89;55.50
6514;BME280;3290;47.716;9.070;2023-07-13T11:33:18;97182.09;;;26.90;53.18
6514;BME280;3290;47.716;9.070;2023-07-13T11:38:41;97173.31;;;26.76;53.87
6514;BME280;3290;47.716;9.070;2023-07-13T11:41:15;97179.72;;;26.36;55.55
6514;BME280;3290;47.716;9.070;2023-07-13T11:43:42;97179.22;;;25.42;55.65
6514;BME280;3290;47.716;9.070;2023-07-13T11:46:25;97171.41;;;26.76;54.04
6514;BME280;3290;47.716;9.070;2023-07-13T11:48:52;97166.44;;;26.92;53.73
6514;BME280;3290;47.716;9.070;2023-07-13T11:51:23;97164.91;;;26.04;54.56
6514;BME280;3290;47.716;9.070;2023-07-13T11:53:55;97163.91;;;26.65;53.36
6514;BME280;3290;47.716;9.070;2023-07-13T11:56:23;97151.03;;;26.23;55.01
6514;BME280;3290;47.716;9.070;2023-07-13T11:58:51;97156.13;;;26.12;56.08
6514;BME280;3290;47.716;9.070;2023-07-13T12:01:32;97147.59;;;26.10;55.78
6514;BME280;3290;47.716;9.070;2023-07-13T12:03:59;97146.81;;;26.09;56.70
6514;BME280;3290;47.716;9.070;2023-07-13T12:08:57;97140.28;;;26.23;55.35
6514;BME280;3290;47.716;9.070;2023-07-13T12:11:25;97149.44;;;26.22;56.22
6514;BME280;3290;47.716;9.070;2023-07-13T12:13:50;97144.31;;;26.34;55.95
6514;BME280;3290;47.716;9.070;2023-07-13T12:16:29;97147.66;;;26.18;54.90
6514;BME280;3290;47.716;9.070;2023-07-13T12:18:55;97145.22;;;26.90;54.56
6514;BME280;3290;47.716;9.070;2023-07-13T12:21:27;97152.06;;;25.92;55.22
6514;BME280;3290;47.716;9.070;2023-07-13T12:23:55;97142.41;;;27.12;54.64
6514;BME280;3290;47.716;9.070;2023-07-13T12:26:20;97144.19;;;25.96;57.32
6514;BME280;3290;47.716;9.070;2023-07-13T12:31:34;97142.69;;;27.91;55.56
6514;BME280;3290;47.716;9.070;2023-07-13T12:34:07;97138.75;;;27.55;53.44
6514;BME280;3290;47.716;9.070;2023-07-13T12:36:36;97137.72;;;27.26;54.42
6514;BME280;3290;47.716;9.070;2023-07-13T12:39:13;97123.97;;;27.94;53.67
6514;BME280;3290;47.716;9.070;2023-07-13T12:41:39;97114.97;;;27.48;54.33
6514;BME280;3290;47.716;9.070;2023-07-13T12:44:10;97118.28;;;27.87;54.62
6514;BME280;3290;47.716;9.070;2023-07-13T12:46:36;97126.22;;;27.59;52.74
6514;BME280;3290;47.716;9.070;2023-07-13T12:49:06;97133.19;;;27.60;55.16
6514;BME280;3290;47.716;9.070;2023-07-13T12:51:32;97124.63;;;27.91;54.93
6514;BME280;3290;47.716;9.070;2023-07-13T12:54:12;97125.03;;;26.71;56.86
6514;BME280;3290;47.716;9.070;2023-07-13T12:56:38;97126.72;;;26.58;58.13
6514;BME280;3290;47.716;9.070;2023-07-13T12:59:04;97125.50;;;26.73;57.68
6514;BME280;3290;47.716;9.070;2023-07-13T13:01:34;97115.75;;;27.82;54.53
6514;BME280;3290;47.716;9.070;2023-07-13T13:04:01;97122.09;;;27.53;54.76
6514;BME280;3290;47.716;9.070;2023-07-13T13:06:31;97120.00;;;28.17;51.53
6514;BME280;3290;47.716;9.070;2023-07-13T13:08:58;97113.47;;;28.35;53.06
6514;BME280;3290;47.716;9.070;2023-07-13T13:11:27;97109.84;;;28.22;54.35
6514;BME280;3290;47.716;9.070;2023-07-13T13:13:53;97108.34;;;28.42;52.99
6514;BME280;3290;47.716;9.070;2023-07-13T13:16:34;97109.84;;;27.30;54.50
6514;BME280;3290;47.716;9.070;2023-07-13T13:19:20;97118.38;;;28.41;52.41
6514;BME280;3290;47.716;9.070;2023-07-13T13:21:47;97109.94;;;29.17;50.25
6514;BME280;3290;47.716;9.070;2023-07-13T13:24:17;97103.66;;;28.22;52.25
6514;BME280;3290;47.716;9.070;2023-07-13T13:26:43;97107.13;;;28.31;53.00
6514;BME280;3290;47.716;9.070;2023-07-13T13:29:14;97110.19;;;27.37;54.54
6514;BME280;3290;47.716;9.070;2023-07-13T13:31:41;97095.75;;;28.17;53.39
6514;BME280;3290;47.716;9.070;2023-07-13T13:34:10;97100.94;;;28.39;51.86
6514;BME280;3290;47.716;9.070;2023-07-13T13:36:35;97104.03;;;27.79;53.87
6514;BME280;3290;47.716;9.070;2023-07-13T13:39:01;97103.34;;;27.14;54.53
6514;BME280;3290;47.716;9.070;2023-07-13T13:41:27;97094.81;;;28.13;53.44
6514;BME280;3290;47.716;9.070;2023-07-13T13:43:53;97087.69;;;27.92;52.59
6514;BME280;3290;47.716;9.070;2023-07-13T13:46:20;97088.16;;;27.18;54.24
6514;BME280;3290;47.716;9.070;2023-07-13T13:48:48;97081.03;;;28.52;52.26
6514;BME280;3290;47.716;9.070;2023-07-13T13:51:21;97076.25;;;28.20;52.92
6514;BME280;3290;47.716;9.070;2023-07-13T13:53:48;97075.22;;;28.41;52.33
6514;BME280;3290;47.716;9.070;2023-07-13T13:56:14;97076.75;;;27.21;54.89
6514;BME280;3290;47.716;9.070;2023-07-13T13:58:40;97078.00;;;27.99;53.81
6514;BME280;3290;47.716;9.070;2023-07-13T14:01:19;97072.84;;;28.77;52.91
6514;BME280;3290;47.716;9.070;2023-07-13T14:03:45;97072.03;;;28.85;51.97
6514;BME280;3290;47.716;9.070;2023-07-13T14:06:15;97075.78;;;28.01;51.73